Time;durP1;ratioP1;P1;durP2;ratioP2;P2;SDS_P1;SDS_P2;PMS_P1;PMS_P2;Temp;Humidity;BMP_temperature;BMP_pressure;BME280_temperature;BME280_humidity;BME280_pressure;Samples;Min_cycle;Max_cycle;Signal;HPM_P1;HPM_P2
2022/03/09 00:00:51;;;;;;;6.30;4.28;;;3.60;75.50;;;;;;5016509;28;20074;-53
2022/03/09 00:03:17;;;;;;;7.28;3.65;;;3.60;75.70;;;;;;5012780;28;20084;-53
2022/03/09 00:05:43;;;;;;;8.05;4.50;;;3.70;75.50;;;;;;5020572;28;20469;-55
2022/03/09 00:08:09;;;;;;;7.97;4.40;;;3.60;75.80;;;;;;4993118;28;20388;-57
2022/03/09 00:10:34;;;;;;;6.47;4.32;;;3.60;76.00;;;;;;5018189;28;20485;-56
2022/03/09 00:13:00;;;;;;;8.85;4.45;;;3.60;75.90;;;;;;5024029;28;20483;-53
2022/03/09 00:15:26;;;;;;;7.53;4.55;;;3.60;75.90;;;;;;5020412;28;20071;-55
2022/03/09 00:17:52;;;;;;;9.85;5.18;;;3.50;76.10;;;;;;5021170;28;20488;-56
2022/03/09 00:20:17;;;;;;;7.32;4.35;;;3.60;76.30;;;;;;5022710;28;20036;-56
2022/03/09 00:22:43;;;;;;;7.22;5.07;;;3.60;76.10;;;;;;5013723;28;20654;-53
2022/03/09 00:25:09;;;;;;;6.07;4.53;;;3.50;76.40;;;;;;5025435;28;20041;-55
2022/03/09 00:27:35;;;;;;;6.45;4.22;;;3.50;76.20;;;;;;5014652;28;20404;-55
2022/03/09 00:30:01;;;;;;;7.68;4.53;;;3.50;75.90;;;;;;5018960;28;20052;-56
2022/03/09 00:32:28;;;;;;;9.15;4.53;;;3.50;76.30;;;;;;5001648;28;20092;-54
2022/03/09 00:34:54;;;;;;;8.45;5.30;;;3.50;76.40;;;;;;5016718;28;20038;-55
2022/03/09 00:37:20;;;;;;;8.15;4.90;;;3.40;76.10;;;;;;5004569;28;20046;-54
2022/03/09 00:39:46;;;;;;;8.73;5.15;;;3.50;76.40;;;;;;5018184;28;20061;-55
2022/03/09 00:42:11;;;;;;;8.43;5.78;;;3.40;76.30;;;;;;5016974;28;20117;-53
2022/03/09 00:44:37;;;;;;;8.23;5.10;;;3.40;76.30;;;;;;5023737;28;20158;-57
2022/03/09 00:47:03;;;;;;;10.60;5.22;;;3.30;76.60;;;;;;4998787;28;20130;-57
2022/03/09 00:49:29;;;;;;;8.55;5.32;;;3.30;76.90;;;;;;4998981;28;20037;-56
2022/03/09 00:51:55;;;;;;;8.20;5.10;;;3.30;76.80;;;;;;5017260;28;20164;-54
2022/03/09 00:54:20;;;;;;;8.40;5.03;;;3.20;76.70;;;;;;5018203;28;20463;-56
2022/03/09 00:56:46;;;;;;;9.25;5.32;;;3.20;76.70;;;;;;5020982;28;20045;-55
2022/03/09 00:59:12;;;;;;;8.05;5.10;;;3.20;76.90;;;;;;5012224;28;20400;-54
2022/03/09 01:01:37;;;;;;;7.53;5.18;;;3.20;77.10;;;;;;5005560;28;20037;-52
2022/03/09 01:04:03;;;;;;;9.43;5.28;;;3.20;77.10;;;;;;5016600;28;20116;-56
2022/03/09 01:06:29;;;;;;;8.43;4.55;;;3.20;77.00;;;;;;5012341;28;20187;-55
2022/03/09 01:08:57;;;;;;;9.45;6.32;;;3.10;77.20;;;;;;5019004;28;20552;-57
2022/03/09 01:11:23;;;;;;;11.32;4.95;;;3.20;77.30;;;;;;5014083;28;20053;-54
2022/03/09 01:13:49;;;;;;;8.40;5.25;;;3.20;77.10;;;;;;4994601;28;20553;-54
2022/03/09 01:16:15;;;;;;;11.25;6.13;;;3.30;77.10;;;;;;4997213;28;20045;-54
2022/03/09 01:18:41;;;;;;;9.63;5.38;;;3.20;77.00;;;;;;5017202;28;20072;-53
2022/03/09 01:21:07;;;;;;;10.23;5.57;;;3.20;76.80;;;;;;5005009;28;20066;-54
2022/03/09 01:23:32;;;;;;;8.82;5.53;;;3.20;76.90;;;;;;5012488;28;20136;-53
2022/03/09 01:25:58;;;;;;;8.88;5.60;;;3.20;76.50;;;;;;4999614;28;20050;-53
2022/03/09 01:28:24;;;;;;;8.23;5.65;;;3.20;76.40;;;;;;5014934;28;20041;-54
2022/03/09 01:30:50;;;;;;;10.38;5.90;;;3.30;76.80;;;;;;5017971;28;20420;-56
2022/03/09 01:33:16;;;;;;;10.93;6.10;;;3.30;76.70;;;;;;5018703;28;20045;-55
2022/03/09 01:35:42;;;;;;;8.57;5.78;;;3.30;76.60;;;;;;5003228;28;20196;-54
2022/03/09 01:38:07;;;;;;;11.02;5.97;;;3.30;76.40;;;;;;5021680;28;20415;-55
2022/03/09 01:40:33;;;;;;;10.27;5.93;;;3.30;76.20;;;;;;4993423;28;20026;-57
2022/03/09 01:42:59;;;;;;;10.77;6.22;;;3.30;76.30;;;;;;5019679;28;20459;-58
2022/03/09 01:45:25;;;;;;;7.95;5.60;;;3.20;76.40;;;;;;5017503;28;20044;-56
2022/03/09 01:47:51;;;;;;;14.45;6.68;;;3.20;76.50;;;;;;5013261;28;20250;-57
2022/03/09 01:50:17;;;;;;;12.55;6.30;;;3.20;76.50;;;;;;5023266;28;20117;-55
2022/03/09 01:52:43;;;;;;;8.43;6.22;;;3.20;76.40;;;;;;5013924;28;20033;-56
2022/03/09 01:55:10;;;;;;;9.52;6.20;;;3.10;76.50;;;;;;5012071;28;20135;-56
2022/03/09 01:57:36;;;;;;;11.02;6.20;;;3.20;76.70;;;;;;5017655;28;20069;-58
2022/03/09 02:00:03;;;;;;;9.65;6.30;;;3.10;76.50;;;;;;5015217;28;20131;-57
2022/03/09 02:04:57;;;;;;;11.77;6.45;;;3.10;76.90;;;;;;5046170;28;20487;-55
2022/03/09 02:09:41;;;;;;;10.02;5.72;;;3.10;76.70;;;;;;5049487;28;20106;-57
2022/03/09 02:10:10;;;;;;;10.57;7.05;;;3.10;76.60;;;;;;5049521;28;20180;-56
2022/03/09 02:12:36;;;;;;;10.40;6.38;;;3.00;76.90;;;;;;5050370;28;20036;-56
2022/03/09 02:15:03;;;;;;;10.13;7.40;;;3.00;77.20;;;;;;5061634;28;20135;-57
2022/03/09 02:17:29;;;;;;;10.40;6.28;;;3.00;77.20;;;;;;5052456;28;20128;-56
2022/03/09 02:19:56;;;;;;;15.20;7.53;;;3.00;77.20;;;;;;5043569;28;20491;-55
2022/03/09 02:22:27;;;;;;;10.27;5.95;;;2.90;77.00;;;;;;5056096;28;20049;-55
2022/03/09 02:24:53;;;;;;;10.05;5.75;;;2.90;77.10;;;;;;5047782;28;20063;-56
2022/03/09 02:27:23;;;;;;;13.48;6.80;;;2.80;77.70;;;;;;5062849;28;20044;-54
2022/03/09 02:29:50;;;;;;;9.70;6.65;;;2.80;77.60;;;;;;5035047;28;20949;-54
2022/03/09 02:32:16;;;;;;;11.43;7.20;;;2.80;77.30;;;;;;5053312;28;20069;-56
2022/03/09 02:34:42;;;;;;;11.73;7.05;;;2.70;77.60;;;;;;5057089;28;20056;-55
2022/03/09 02:37:08;;;;;;;10.20;6.47;;;2.70;77.50;;;;;;5047211;28;20399;-56
2022/03/09 02:39:34;;;;;;;9.80;6.82;;;2.70;77.50;;;;;;5062746;28;20522;-55
2022/03/09 02:42:00;;;;;;;11.82;7.32;;;2.60;77.80;;;;;;5047919;28;20045;-53
2022/03/09 02:44:26;;;;;;;12.38;6.72;;;2.60;78.10;;;;;;5060652;28;20123;-55
2022/03/09 02:46:51;;;;;;;10.48;6.85;;;2.60;78.20;;;;;;5056646;28;20523;-53
2022/03/09 02:49:17;;;;;;;10.85;6.78;;;2.50;78.30;;;;;;5054484;28;20219;-56
2022/03/09 02:51:43;;;;;;;8.65;6.82;;;2.50;78.20;;;;;;5058803;28;20045;-56
2022/03/09 02:54:09;;;;;;;12.48;6.85;;;2.50;78.20;;;;;;5050666;28;20037;-54
2022/03/09 02:56:34;;;;;;;9.30;6.35;;;2.50;78.40;;;;;;5056981;28;20500;-57
2022/03/09 02:59:00;;;;;;;13.07;8.15;;;2.50;78.60;;;;;;5054654;28;20036;-53
2022/03/09 03:01:26;;;;;;;11.30;7.75;;;2.50;78.30;;;;;;5050438;28;20119;-53
2022/03/09 03:03:51;;;;;;;10.50;7.38;;;2.50;78.20;;;;;;5061776;28;20049;-55
2022/03/09 03:06:17;;;;;;;11.43;7.43;;;2.50;78.30;;;;;;5052205;28;20331;-55
2022/03/09 03:08:43;;;;;;;11.00;7.20;;;2.40;78.20;;;;;;5056525;28;20471;-56
2022/03/09 03:11:10;;;;;;;10.40;6.95;;;2.40;78.10;;;;;;5052183;28;20052;-56
2022/03/09 03:13:41;;;;;;;11.93;6.88;;;2.40;78.20;;;;;;5052045;28;20040;-55
2022/03/09 03:16:08;;;;;;;13.60;6.78;;;2.40;78.20;;;;;;5061850;28;20044;-57
2022/03/09 03:18:34;;;;;;;12.40;7.10;;;2.30;78.20;;;;;;5046389;28;20037;-56
2022/03/09 03:21:00;;;;;;;11.73;6.72;;;2.60;78.60;;;;;;5061482;28;20495;-56
2022/03/09 03:23:28;;;;;;;11.88;6.70;;;2.20;78.50;;;;;;5052704;28;20127;-55
2022/03/09 03:25:55;;;;;;;12.15;6.90;;;2.20;78.60;;;;;;5038313;28;20040;-55
2022/03/09 03:28:22;;;;;;;10.65;6.85;;;2.20;78.60;;;;;;5055495;28;20051;-57
2022/03/09 03:30:48;;;;;;;12.00;7.30;;;2.20;79.00;;;;;;5039066;28;20091;-56
2022/03/09 03:33:16;;;;;;;12.65;7.20;;;2.20;79.30;;;;;;5052095;28;20041;-57
2022/03/09 03:35:43;;;;;;;9.55;6.00;;;2.20;79.10;;;;;;5052045;28;20041;-56
2022/03/09 03:38:10;;;;;;;12.13;7.20;;;2.10;79.20;;;;;;5051184;28;20087;-56
2022/03/09 03:40:37;;;;;;;11.82;6.90;;;2.10;79.30;;;;;;5038153;28;20203;-57
2022/03/09 03:43:04;;;;;;;10.13;7.00;;;2.10;79.40;;;;;;5032369;28;20540;-56
2022/03/09 03:45:29;;;;;;;10.38;6.70;;;2.10;79.70;;;;;;5060732;28;20051;-54
2022/03/09 03:47:55;;;;;;;13.57;7.93;;;2.10;79.40;;;;;;5051169;28;20554;-57
2022/03/09 03:50:21;;;;;;;9.27;6.78;;;2.00;79.40;;;;;;5038633;28;20395;-57
2022/03/09 03:52:47;;;;;;;11.15;7.32;;;2.10;79.60;;;;;;5059742;28;20094;-55
2022/03/09 03:55:13;;;;;;;9.93;6.50;;;2.10;79.80;;;;;;5049376;28;21065;-57
2022/03/09 03:57:39;;;;;;;13.60;7.47;;;2.10;79.70;;;;;;5057135;28;20706;-55
2022/03/09 04:00:06;;;;;;;11.43;6.85;;;2.10;79.80;;;;;;5055428;28;20045;-55
2022/03/09 04:02:31;;;;;;;13.32;7.57;;;2.00;79.60;;;;;;5049626;28;20113;-54
2022/03/09 04:04:57;;;;;;;12.88;7.30;;;2.00;79.50;;;;;;5057398;28;20086;-56
2022/03/09 04:07:23;;;;;;;12.35;7.35;;;1.90;79.60;;;;;;5037736;28;20067;-56
2022/03/09 04:09:49;;;;;;;11.63;7.70;;;1.90;79.60;;;;;;5042394;28;20063;-55
2022/03/09 04:12:15;;;;;;;11.38;6.97;;;1.90;80.00;;;;;;5049420;28;20120;-56
2022/03/09 04:14:41;;;;;;;13.77;7.38;;;1.90;80.00;;;;;;5054278;28;20119;-55
2022/03/09 04:17:07;;;;;;;11.32;7.35;;;2.00;80.30;;;;;;5053205;28;20040;-56
2022/03/09 04:19:32;;;;;;;12.23;7.47;;;2.00;80.00;;;;;;5050930;28;20056;-56
2022/03/09 04:21:58;;;;;;;17.83;9.38;;;2.00;80.10;;;;;;5058461;28;20044;-55
2022/03/09 04:24:24;;;;;;;13.02;6.85;;;2.00;79.90;;;;;;5050644;28;20068;-57
2022/03/09 04:26:50;;;;;;;12.98;7.68;;;2.00;80.00;;;;;;5054379;28;20055;-55
2022/03/09 04:29:15;;;;;;;11.75;7.05;;;2.00;80.20;;;;;;5057414;28;20037;-54
2022/03/09 04:31:41;;;;;;;11.20;7.18;;;2.00;80.20;;;;;;5050290;28;20037;-54
2022/03/09 04:34:07;;;;;;;12.10;7.03;;;2.00;80.30;;;;;;5028716;28;20052;-54
2022/03/09 04:36:33;;;;;;;12.88;8.80;;;2.00;80.50;;;;;;5050278;28;20044;-56
2022/03/09 04:38:59;;;;;;;13.63;8.13;;;2.00;80.50;;;;;;5051503;28;20040;-54
2022/03/09 04:41:25;;;;;;;9.75;6.72;;;2.00;80.30;;;;;;5054340;28;20123;-56
2022/03/09 04:43:51;;;;;;;13.38;7.40;;;2.00;80.20;;;;;;5052261;28;20043;-56
2022/03/09 04:46:17;;;;;;;12.98;7.88;;;2.00;80.50;;;;;;5060351;28;20066;-54
2022/03/09 04:48:44;;;;;;;14.55;7.53;;;2.00;80.70;;;;;;5050989;28;20059;-55
2022/03/09 04:51:10;;;;;;;13.35;7.30;;;2.00;80.30;;;;;;5056149;28;20356;-57
2022/03/09 04:53:36;;;;;;;16.23;8.27;;;1.80;80.30;;;;;;5057636;28;20040;-56
2022/03/09 04:56:01;;;;;;;11.57;7.85;;;1.90;80.10;;;;;;5049778;28;20049;-54
2022/03/09 04:58:27;;;;;;;16.27;8.10;;;1.90;80.70;;;;;;5056986;28;20062;-54
2022/03/09 05:00:53;;;;;;;13.85;8.15;;;1.90;80.70;;;;;;5052092;28;20492;-55
2022/03/09 05:03:19;;;;;;;13.40;7.10;;;1.80;80.70;;;;;;5054691;28;20418;-53
2022/03/09 05:05:45;;;;;;;11.55;7.38;;;1.80;80.60;;;;;;5052474;28;20148;-55
2022/03/09 05:08:11;;;;;;;15.05;8.02;;;1.80;80.70;;;;;;5052797;28;20043;-52
2022/03/09 05:10:37;;;;;;;11.35;7.20;;;1.70;80.60;;;;;;5060481;28;20170;-56
2022/03/09 05:13:04;;;;;;;13.05;7.80;;;1.70;80.70;;;;;;5031984;28;20079;-55
2022/03/09 05:15:30;;;;;;;12.82;7.25;;;1.70;80.90;;;;;;5054700;28;20051;-55
2022/03/09 05:17:56;;;;;;;14.95;8.10;;;1.60;80.70;;;;;;5040813;28;20516;-55
2022/03/09 05:20:23;;;;;;;11.40;7.35;;;1.60;80.80;;;;;;5039667;28;20125;-56
2022/03/09 05:22:49;;;;;;;11.88;8.13;;;1.50;81.30;;;;;;5049957;28;20043;-56
2022/03/09 05:25:16;;;;;;;14.38;7.20;;;1.50;81.20;;;;;;5048057;28;20040;-55
2022/03/09 05:27:41;;;;;;;12.85;7.40;;;1.50;81.20;;;;;;5055815;28;20495;-55
2022/03/09 05:30:09;;;;;;;12.43;7.45;;;1.50;81.40;;;;;;5031824;28;20048;-52
2022/03/09 05:32:35;;;;;;;12.10;8.10;;;1.50;81.80;;;;;;5037708;28;20267;-53
2022/03/09 05:35:02;;;;;;;11.43;7.80;;;1.50;82.00;;;;;;5054553;28;20072;-54
2022/03/09 05:37:28;;;;;;;12.63;7.88;;;1.50;82.00;;;;;;5030836;28;20508;-54
2022/03/09 05:39:55;;;;;;;12.63;7.18;;;1.50;82.10;;;;;;5052366;28;20553;-53
2022/03/09 05:42:20;;;;;;;13.52;7.57;;;1.50;81.90;;;;;;5053113;28;20123;-53
2022/03/09 05:44:46;;;;;;;12.73;7.93;;;1.50;82.10;;;;;;5050488;28;20329;-56
2022/03/09 05:47:12;;;;;;;11.13;6.80;;;1.50;82.10;;;;;;5054365;28;20048;-56
2022/03/09 05:49:38;;;;;;;11.48;7.18;;;1.50;82.50;;;;;;5050703;28;20079;-56
2022/03/09 05:52:04;;;;;;;11.27;7.30;;;1.50;82.30;;;;;;5036277;28;20040;-56
2022/03/09 05:54:30;;;;;;;15.23;8.02;;;1.50;82.30;;;;;;5046559;28;20041;-54
2022/03/09 05:56:56;;;;;;;11.45;6.40;;;1.50;82.20;;;;;;5047860;28;20427;-56
2022/03/09 05:59:22;;;;;;;13.95;7.68;;;1.50;82.40;;;;;;5043409;28;20266;-53
2022/03/09 06:01:47;;;;;;;12.00;7.97;;;1.50;82.50;;;;;;5047969;28;20059;-56
2022/03/09 06:04:13;;;;;;;12.80;7.63;;;1.50;82.60;;;;;;5044241;28;20082;-54
2022/03/09 06:06:39;;;;;;;14.07;7.82;;;1.50;82.50;;;;;;5052774;28;20135;-54
2022/03/09 06:09:05;;;;;;;13.18;7.88;;;1.50;82.40;;;;;;5049142;28;20062;-55
2022/03/09 06:11:30;;;;;;;13.63;7.95;;;1.50;82.60;;;;;;5058494;28;20036;-56
2022/03/09 06:13:56;;;;;;;10.52;7.68;;;1.50;82.50;;;;;;5052084;28;20032;-55
2022/03/09 06:16:22;;;;;;;17.35;8.65;;;1.40;82.40;;;;;;5056469;28;20503;-54
2022/03/09 06:18:49;;;;;;;14.63;8.73;;;1.50;82.90;;;;;;5046002;28;20052;-56
2022/03/09 06:21:15;;;;;;;13.70;8.05;;;1.40;82.50;;;;;;5033140;28;20044;-55
2022/03/09 06:23:41;;;;;;;14.98;8.73;;;1.40;82.40;;;;;;5037187;28;20045;-55
2022/03/09 06:26:07;;;;;;;13.00;7.68;;;1.40;82.20;;;;;;5037854;28;20190;-55
2022/03/09 06:28:33;;;;;;;15.95;8.85;;;1.40;82.40;;;;;;5015280;28;20052;-55
2022/03/09 06:30:59;;;;;;;16.75;7.60;;;1.40;82.80;;;;;;5030428;28;20419;-55
2022/03/09 06:33:25;;;;;;;12.10;8.18;;;1.40;83.00;;;;;;5044152;28;20389;-56
2022/03/09 06:35:51;;;;;;;11.43;7.68;;;1.40;82.90;;;;;;5058279;28;20036;-55
2022/03/09 06:38:16;;;;;;;14.23;8.27;;;1.40;83.00;;;;;;5045809;28;20033;-55
2022/03/09 06:40:43;;;;;;;14.45;7.32;;;1.40;83.20;;;;;;5051890;28;20261;-54
2022/03/09 06:43:09;;;;;;;10.20;6.60;;;1.50;83.10;;;;;;5053954;28;20045;-55
2022/03/09 06:45:35;;;;;;;12.15;8.25;;;1.50;83.10;;;;;;5029092;28;20049;-55
2022/03/09 06:48:01;;;;;;;13.93;8.43;;;1.50;82.80;;;;;;5056126;28;20044;-55
2022/03/09 06:50:27;;;;;;;11.35;7.05;;;1.50;82.90;;;;;;5047383;28;20090;-53
2022/03/09 06:52:53;;;;;;;14.70;7.75;;;1.70;83.40;;;;;;5048666;28;20041;-54
2022/03/09 06:55:18;;;;;;;16.08;9.07;;;2.00;83.30;;;;;;5052890;28;20484;-54
2022/03/09 06:57:44;;;;;;;12.75;7.28;;;2.60;82.50;;;;;;5050600;28;20079;-56
2022/03/09 07:00:14;;;;;;;12.73;7.35;;;3.00;80.70;;;;;;5059956;28;20044;-55
2022/03/09 07:02:40;;;;;;;12.15;7.55;;;3.30;79.40;;;;;;5037844;28;20056;-54
2022/03/09 07:05:07;;;;;;;11.93;7.68;;;3.80;78.90;;;;;;5050093;28;20102;-55
2022/03/09 07:07:32;;;;;;;13.05;8.27;;;4.40;77.50;;;;;;5054370;28;20043;-56
2022/03/09 07:09:58;;;;;;;13.05;7.00;;;4.80;76.00;;;;;;5053904;28;20033;-55
2022/03/09 07:12:25;;;;;;;14.02;7.57;;;5.10;74.90;;;;;;5057791;28;20478;-55
2022/03/09 07:14:50;;;;;;;13.05;7.65;;;5.20;74.00;;;;;;5051430;28;20072;-55
2022/03/09 07:17:17;;;;;;;13.20;7.63;;;5.10;74.70;;;;;;5051327;28;20071;-57
2022/03/09 07:19:43;;;;;;;11.55;7.72;;;4.80;74.10;;;;;;5056874;28;20041;-56
2022/03/09 07:22:09;;;;;;;14.93;8.43;;;4.50;74.50;;;;;;5051399;28;20106;-55
2022/03/09 07:24:35;;;;;;;14.15;8.23;;;4.40;75.70;;;;;;5058496;28;20044;-56
2022/03/09 07:27:01;;;;;;;13.23;8.38;;;4.30;75.30;;;;;;5037390;28;20548;-55
2022/03/09 07:29:26;;;;;;;11.05;7.60;;;4.10;76.00;;;;;;5059549;28;20059;-55
2022/03/09 07:31:53;;;;;;;13.35;8.20;;;4.10;76.80;;;;;;5056439;28;20508;-54
2022/03/09 07:34:22;;;;;;;11.75;7.72;;;4.10;76.20;;;;;;5054795;28;20041;-55
2022/03/09 07:36:53;;;;;;;14.93;8.70;;;4.10;76.20;;;;;;5054141;28;20049;-54
2022/03/09 07:39:19;;;;;;;13.27;7.82;;;4.00;76.50;;;;;;5051800;28;20123;-55
2022/03/09 07:41:47;;;;;;;11.13;7.18;;;4.10;76.60;;;;;;5043909;28;20067;-60
2022/03/09 07:44:13;;;;;;;14.18;7.82;;;4.10;76.80;;;;;;5023695;28;20049;-55
2022/03/09 07:46:39;;;;;;;11.68;7.15;;;4.10;76.30;;;;;;5050504;28;20220;-56
2022/03/09 07:49:04;;;;;;;17.30;7.45;;;4.10;75.90;;;;;;5059018;28;20126;-55
2022/03/09 07:51:30;;;;;;;11.27;7.30;;;4.20;76.90;;;;;;5041361;28;20048;-57
2022/03/09 07:53:56;;;;;;;12.43;8.02;;;4.20;75.80;;;;;;5056163;28;20036;-55
2022/03/09 07:56:24;;;;;;;12.90;7.45;;;4.30;75.70;;;;;;5050353;28;20131;-61
2022/03/09 07:58:51;;;;;;;12.85;7.68;;;4.30;75.50;;;;;;5010466;28;20083;-56
2022/03/09 08:01:16;;;;;;;11.30;8.10;;;4.40;75.60;;;;;;5056782;28;20095;-56
2022/03/09 08:03:42;;;;;;;14.32;7.78;;;4.50;75.00;;;;;;5051020;28;20078;-56
2022/03/09 08:06:08;;;;;;;14.10;7.53;;;4.60;75.00;;;;;;5059576;28;20504;-56
2022/03/09 08:08:34;;;;;;;16.75;7.88;;;4.70;74.10;;;;;;5036932;28;20040;-56
2022/03/09 08:11:02;;;;;;;13.52;7.85;;;4.80;74.20;;;;;;5050120;28;20491;-61
2022/03/09 08:13:29;;;;;;;13.52;8.13;;;4.90;74.70;;;;;;5061081;28;20056;-55
2022/03/09 08:15:55;;;;;;;14.52;7.80;;;5.00;74.20;;;;;;5053748;28;20072;-54
2022/03/09 08:18:21;;;;;;;12.60;7.70;;;5.10;73.80;;;;;;5057246;28;20094;-54
2022/03/09 08:20:46;;;;;;;14.57;8.35;;;5.20;74.00;;;;;;5055896;28;20167;-55
2022/03/09 08:23:12;;;;;;;12.63;7.32;;;5.30;73.10;;;;;;5051552;28;20051;-56
2022/03/09 08:25:40;;;;;;;12.60;7.80;;;5.40;73.60;;;;;;5057860;28;20045;-62
2022/03/09 08:28:06;;;;;;;12.85;8.27;;;5.60;73.20;;;;;;5053145;28;20038;-57
2022/03/09 08:30:31;;;;;;;12.23;7.70;;;5.60;72.80;;;;;;5062288;28;20382;-54
2022/03/09 08:32:57;;;;;;;15.30;8.63;;;5.70;73.10;;;;;;5046142;28;20049;-55
2022/03/09 08:35:23;;;;;;;13.27;7.63;;;5.80;72.50;;;;;;5061976;28;20414;-55
2022/03/09 08:37:49;;;;;;;13.05;7.30;;;5.80;71.30;;;;;;5040390;28;20044;-54
2022/03/09 08:40:20;;;;;;;11.32;7.07;;;5.80;71.20;;;;;;5054867;28;20106;-60
2022/03/09 08:42:47;;;;;;;12.88;7.50;;;5.90;71.10;;;;;;5047608;28;20147;-56
2022/03/09 08:45:13;;;;;;;13.48;8.30;;;6.00;71.00;;;;;;5050279;28;20084;-55
2022/03/09 08:47:39;;;;;;;14.27;8.23;;;6.10;71.00;;;;;;5056625;28;20083;-57
2022/03/09 08:50:06;;;;;;;12.52;7.40;;;6.20;70.50;;;;;;5056959;28;20045;-54
2022/03/09 08:52:33;;;;;;;11.57;7.75;;;6.40;71.10;;;;;;5048668;28;20051;-56
2022/03/09 08:54:59;;;;;;;10.70;7.07;;;6.50;71.00;;;;;;5059698;28;20040;-60
2022/03/09 08:57:25;;;;;;;14.00;7.63;;;6.60;70.60;;;;;;5008708;28;20036;-56
2022/03/09 08:59:51;;;;;;;14.98;7.78;;;6.70;70.40;;;;;;5055578;28;20068;-54
2022/03/09 09:02:17;;;;;;;10.10;7.68;;;6.80;70.60;;;;;;5052743;28;20063;-55
2022/03/09 09:04:42;;;;;;;12.65;7.55;;;6.80;69.70;;;;;;5051675;28;20056;-54
2022/03/09 09:07:08;;;;;;;11.15;6.97;;;6.90;68.80;;;;;;5060207;28;20104;-55
2022/03/09 09:09:36;;;;;;;10.38;7.78;;;7.00;69.20;;;;;;5033677;28;20499;-61
2022/03/09 09:12:02;;;;;;;13.90;7.93;;;7.10;68.80;;;;;;5034509;28;20944;-56
2022/03/09 09:14:28;;;;;;;10.13;6.82;;;7.10;67.10;;;;;;5055153;28;20060;-53
2022/03/09 09:16:54;;;;;;;9.30;6.57;;;7.10;67.70;;;;;;5049430;28;20380;-55
2022/03/09 09:19:20;;;;;;;15.48;7.43;;;7.30;67.60;;;;;;5057773;28;20051;-54
2022/03/09 09:21:46;;;;;;;12.98;8.15;;;7.40;67.90;;;;;;5046539;28;20033;-53
2022/03/09 09:24:15;;;;;;;14.30;7.47;;;7.40;67.40;;;;;;5052428;28;20041;-61
2022/03/09 09:26:42;;;;;;;12.60;8.02;;;7.60;67.10;;;;;;5036284;28;20052;-57
2022/03/09 09:29:09;;;;;;;10.77;7.28;;;7.60;66.90;;;;;;5046704;28;20044;-56
2022/03/09 09:31:35;;;;;;;12.20;8.20;;;7.80;67.00;;;;;;5061875;28;20044;-54
2022/03/09 09:34:02;;;;;;;10.50;7.05;;;7.90;67.30;;;;;;5038788;28;20033;-54
2022/03/09 09:36:28;;;;;;;14.70;8.02;;;8.10;67.00;;;;;;5053416;28;20499;-56
2022/03/09 09:38:54;;;;;;;12.43;7.85;;;8.20;66.80;;;;;;5049401;28;20200;-59
2022/03/09 09:41:24;;;;;;;14.85;8.43;;;8.30;65.50;;;;;;5032085;28;20047;-55
2022/03/09 09:43:50;;;;;;;9.73;7.60;;;8.50;65.60;;;;;;5055107;28;20127;-53
2022/03/09 09:46:16;;;;;;;11.02;7.03;;;8.50;64.50;;;;;;5044622;28;20531;-55
2022/03/09 09:48:43;;;;;;;9.80;6.70;;;8.60;64.50;;;;;;5061057;28;20037;-54
2022/03/09 09:51:17;;;;;;;13.43;7.82;;;8.70;64.30;;;;;;5053817;28;20056;-54
2022/03/09 09:53:45;;;;;;;12.10;7.10;;;8.90;64.70;;;;;;5023036;28;20048;-57
2022/03/09 09:56:14;;;;;;;9.38;7.28;;;9.00;64.20;;;;;;5053307;28;20088;-54
2022/03/09 09:58:42;;;;;;;11.52;7.50;;;9.20;63.40;;;;;;5048947;28;20040;-54
2022/03/09 10:01:08;;;;;;;12.95;8.52;;;9.20;62.40;;;;;;5055893;28;20413;-54
2022/03/09 10:03:39;;;;;;;10.98;7.90;;;9.40;63.00;;;;;;5046431;28;20071;-56
2022/03/09 10:06:06;;;;;;;12.32;8.15;;;9.50;62.60;;;;;;5034957;28;20638;-58
2022/03/09 10:08:31;;;;;;;10.13;7.55;;;9.60;61.90;;;;;;5040010;28;20131;-57
2022/03/09 10:10:58;;;;;;;11.20;7.32;;;9.70;62.20;;;;;;5050894;28;20109;-57
2022/03/09 10:13:33;;;;;;;11.35;7.93;;;9.90;62.00;;;;;;5055962;28;20047;-58
2022/03/09 10:16:20;;;;;;;11.15;7.25;;;10.00;61.60;;;;;;5049456;28;20041;-58
2022/03/09 10:18:54;;;;;;;12.57;7.68;;;10.10;61.80;;;;;;5043657;28;20044;-58
2022/03/09 10:21:26;;;;;;;10.15;7.25;;;10.30;62.20;;;;;;5048789;28;20044;-55
2022/03/09 10:23:58;;;;;;;11.57;7.38;;;10.40;61.50;;;;;;5052628;28;20048;-59
2022/03/09 10:26:36;;;;;;;10.45;7.32;;;10.50;60.70;;;;;;5035560;28;20117;-56
2022/03/09 10:29:05;;;;;;;10.75;7.55;;;10.50;60.00;;;;;;5049453;28;20132;-54
2022/03/09 10:31:34;;;;;;;10.95;7.45;;;10.70;60.90;;;;;;5056971;28;20290;-57
2022/03/09 10:34:04;;;;;;;12.18;7.60;;;10.70;60.30;;;;;;5048371;28;20040;-58
2022/03/09 10:36:30;;;;;;;9.50;7.45;;;10.80;60.00;;;;;;5060290;28;20044;-55
2022/03/09 10:39:15;;;;;;;10.32;7.93;;;11.00;60.30;;;;;;5029486;28;20741;-56
2022/03/09 10:41:42;;;;;;;10.20;7.28;;;11.20;60.60;;;;;;5040241;28;20419;-57
2022/03/09 10:44:14;;;;;;;12.30;8.05;;;11.30;60.20;;;;;;5054782;28;20535;-56
2022/03/09 10:46:44;;;;;;;12.10;7.32;;;11.50;59.90;;;;;;5038165;28;20047;-55
2022/03/09 10:49:12;;;;;;;11.30;8.05;;;11.60;59.40;;;;;;5058078;28;20048;-57
2022/03/09 10:51:39;;;;;;;13.25;8.35;;;11.60;58.80;;;;;;5041182;28;20033;-55
2022/03/09 10:54:26;;;;;;;9.05;7.18;;;11.70;59.50;;;;;;5051850;28;20063;-57
2022/03/09 10:57:10;;;;;;;11.20;7.85;;;11.80;56.80;;;;;;5054132;28;20044;-55
2022/03/09 10:59:43;;;;;;;;;;;11.80;54.60;;;;;;5049580;28;20097;-57
2022/03/09 11:02:21;;;;;;;14.18;7.78;;;11.80;54.40;;;;;;5062474;28;19963;-56
2022/03/09 11:05:09;;;;;;;12.60;7.95;;;11.90;57.60;;;;;;5052932;28;20070;-56
2022/03/09 11:07:39;;;;;;;11.75;8.07;;;12.10;56.90;;;;;;5043525;28;20052;-56
2022/03/09 11:10:08;;;;;;;18.40;8.43;;;12.20;57.60;;;;;;5054346;28;20044;-62
2022/03/09 11:12:38;;;;;;;10.65;7.45;;;12.30;56.80;;;;;;5034108;28;20438;-59
2022/03/09 11:15:05;;;;;;;11.38;7.90;;;12.50;56.30;;;;;;5068428;28;20045;-56
2022/03/09 11:17:32;;;;;;;11.63;7.70;;;12.50;54.90;;;;;;5051710;28;20108;-56
2022/03/09 11:19:59;;;;;;;12.43;8.40;;;12.60;55.80;;;;;;5044956;28;20045;-55
2022/03/09 11:22:24;;;;;;;10.02;7.28;;;12.60;56.00;;;;;;5049022;28;20049;-54
2022/03/09 11:24:53;;;;;;;10.90;7.72;;;12.70;55.20;;;;;;5058311;28;20048;-58
2022/03/09 11:27:19;;;;;;;10.90;7.82;;;12.80;55.00;;;;;;5055239;28;20060;-55
2022/03/09 11:29:45;;;;;;;14.07;8.98;;;12.90;55.00;;;;;;5028775;28;20052;-55
2022/03/09 11:32:14;;;;;;;10.32;8.10;;;12.80;53.10;;;;;;5074810;28;20237;-57
2022/03/09 11:34:47;;;;;;;10.50;7.88;;;12.80;53.60;;;;;;5049898;28;20415;-57
2022/03/09 11:37:34;;;;;;;14.07;8.45;;;13.00;54.30;;;;;;5051673;28;20052;-59
2022/03/09 11:40:06;;;;;;;13.13;8.27;;;13.00;54.30;;;;;;5030925;28;20408;-56
2022/03/09 11:42:34;;;;;;;11.13;8.20;;;13.20;54.70;;;;;;5037468;28;20040;-57
2022/03/09 11:45:15;;;;;;;13.27;8.45;;;13.30;54.50;;;;;;5052564;28;20040;-62
2022/03/09 11:48:01;;;;;;;11.10;8.60;;;13.40;54.50;;;;;;5050981;28;20143;-56
2022/03/09 11:50:29;;;;;;;15.45;8.13;;;13.40;54.40;;;;;;5061045;28;20427;-56
2022/03/09 11:53:01;;;;;;;11.75;8.23;;;13.50;53.80;;;;;;5047678;28;20392;-61
2022/03/09 11:55:27;;;;;;;10.55;8.18;;;13.60;54.20;;;;;;5040472;28;20058;-57
2022/03/09 11:57:56;;;;;;;11.60;8.25;;;13.70;54.50;;;;;;5050237;28;20137;-54
2022/03/09 12:00:22;;;;;;;12.80;8.25;;;13.90;53.60;;;;;;5048671;28;20048;-55
2022/03/09 12:02:56;;;;;;;11.00;7.72;;;13.90;53.40;;;;;;5054033;28;20117;-53
2022/03/09 12:05:25;;;;;;;15.75;9.93;;;14.00;53.10;;;;;;5034465;28;20048;-59
2022/03/09 12:08:11;;;;;;;11.70;8.15;;;14.10;53.10;;;;;;5059844;28;20036;-56
2022/03/09 12:10:55;;;;;;;10.25;8.20;;;14.30;52.20;;;;;;5053218;28;20040;-56
2022/03/09 12:13:21;;;;;;;;;;;14.30;52.40;;;;;;5055325;28;20182;-56
2022/03/09 12:16:12;;;;;;;11.63;8.55;;;14.40;51.50;;;;;;5050192;28;19927;-55
2022/03/09 12:19:00;;;;;;;13.13;9.25;;;14.50;51.90;;;;;;5037308;28;20044;-55
2022/03/09 12:21:26;;;;;;;11.23;8.35;;;14.60;51.70;;;;;;5057918;28;22223;-56
2022/03/09 12:24:04;;;;;;;12.80;8.73;;;14.70;52.10;;;;;;5049231;28;20059;-56
2022/03/09 12:26:45;;;;;;;10.73;8.35;;;14.80;51.30;;;;;;5050906;28;20042;-57
2022/03/09 12:29:28;;;;;;;14.55;8.75;;;14.80;49.20;;;;;;5038679;28;20041;-57
2022/03/09 12:32:09;;;;;;;11.80;8.40;;;14.90;49.90;;;;;;5050760;28;20040;-58
2022/03/09 12:34:47;;;;;;;11.43;9.43;;;14.90;50.40;;;;;;5032365;28;20044;-59
2022/03/09 12:37:18;;;;;;;12.88;8.55;;;15.00;50.70;;;;;;5049803;28;20052;-55
2022/03/09 12:39:52;;;;;;;11.68;9.23;;;15.20;50.60;;;;;;5050444;28;20557;-57
2022/03/09 12:42:19;;;;;;;10.57;8.27;;;15.30;48.60;;;;;;5049763;28;20044;-55
2022/03/09 12:44:47;;;;;;;18.23;10.85;;;15.30;48.40;;;;;;5035694;28;20137;-62
2022/03/09 12:47:14;;;;;;;10.40;8.30;;;15.10;46.60;;;;;;5015410;28;20040;-56
2022/03/09 12:49:43;;;;;;;11.50;8.88;;;15.30;49.20;;;;;;5051774;28;20660;-55
2022/03/09 12:52:17;;;;;;;11.85;8.95;;;15.50;47.40;;;;;;5054275;28;20407;-56